sensor_id;sensor_type;location;lat;lon;timestamp;temperature;humidity
13344;DHT22;6741;48.964;9.406;2022-10-16T00:01:05;14.30;99.90
13344;DHT22;6741;48.964;9.406;2022-10-16T00:03:33;14.30;99.90
13344;DHT22;6741;48.964;9.406;2022-10-16T00:06:01;14.30;99.90
13344;DHT22;6741;48.964;9.406;2022-10-16T00:08:29;14.40;99.90
13344;DHT22;6741;48.964;9.406;2022-10-16T00:11:00;14.40;99.90
13344;DHT22;6741;48.964;9.406;2022-10-16T00:13:27;14.40;99.90
13344;DHT22;6741;48.964;9.406;2022-10-16T00:15:55;14.40;99.90
13344;DHT22;6741;48.964;9.406;2022-10-16T00:18:23;14.40;99.90
13344;DHT22;6741;48.964;9.406;2022-10-16T00:20:52;14.40;99.90
13344;DHT22;6741;48.964;9.406;2022-10-16T00:23:19;14.40;99.90
13344;DHT22;6741;48.964;9.406;2022-10-16T00:25:54;14.40;99.90
13344;DHT22;6741;48.964;9.406;2022-10-16T00:28:22;14.30;99.90
13344;DHT22;6741;48.964;9.406;2022-10-16T00:30:49;14.30;99.90
13344;DHT22;6741;48.964;9.406;2022-10-16T00:33:16;14.40;99.90
13344;DHT22;6741;48.964;9.406;2022-10-16T00:35:43;14.40;99.90
13344;DHT22;6741;48.964;9.406;2022-10-16T00:38:11;14.40;99.90
13344;DHT22;6741;48.964;9.406;2022-10-16T00:40:38;14.40;99.90
13344;DHT22;6741;48.964;9.406;2022-10-16T00:43:12;14.40;99.90
13344;DHT22;6741;48.964;9.406;2022-10-16T00:45:40;14.40;99.90
13344;DHT22;6741;48.964;9.406;2022-10-16T00:48:11;14.40;99.90
13344;DHT22;6741;48.964;9.406;2022-10-16T00:50:39;14.40;99.90
13344;DHT22;6741;48.964;9.406;2022-10-16T00:53:09;14.40;99.90
13344;DHT22;6741;48.964;9.406;2022-10-16T00:55:38;14.40;99.90
13344;DHT22;6741;48.964;9.406;2022-10-16T00:58:05;14.40;99.90
13344;DHT22;6741;48.964;9.406;2022-10-16T01:00:32;14.40;99.90
13344;DHT22;6741;48.964;9.406;2022-10-16T01:03:00;14.40;99.90
13344;DHT22;6741;48.964;9.406;2022-10-16T01:05:33;14.40;99.90
13344;DHT22;6741;48.964;9.406;2022-10-16T01:08:07;14.30;99.90
13344;DHT22;6741;48.964;9.406;2022-10-16T01:10:40;14.40;99.90
13344;DHT22;6741;48.964;9.406;2022-10-16T01:13:11;14.40;99.90
13344;DHT22;6741;48.964;9.406;2022-10-16T01:15:45;14.40;99.90
13344;DHT22;6741;48.964;9.406;2022-10-16T01:18:17;14.40;99.90
13344;DHT22;6741;48.964;9.406;2022-10-16T01:20:48;14.40;99.90
13344;DHT22;6741;48.964;9.406;2022-10-16T01:23:31;14.40;99.90
13344;DHT22;6741;48.964;9.406;2022-10-16T01:26:13;14.40;99.90
13344;DHT22;6741;48.964;9.406;2022-10-16T01:28:45;14.40;99.90
13344;DHT22;6741;48.964;9.406;2022-10-16T01:31:17;14.40;99.90
13344;DHT22;6741;48.964;9.406;2022-10-16T01:33:47;14.40;99.90
13344;DHT22;6741;48.964;9.406;2022-10-16T01:36:18;14.40;99.90
13344;DHT22;6741;48.964;9.406;2022-10-16T01:38:50;14.40;99.90
13344;DHT22;6741;48.964;9.406;2022-10-16T01:41:22;14.30;99.90
13344;DHT22;6741;48.964;9.406;2022-10-16T01:43:56;14.20;99.90
13344;DHT22;6741;48.964;9.406;2022-10-16T01:46:25;14.20;99.90
13344;DHT22;6741;48.964;9.406;2022-10-16T01:48:54;14.20;99.90
13344;DHT22;6741;48.964;9.406;2022-10-16T01:51:22;14.30;99.90
13344;DHT22;6741;48.964;9.406;2022-10-16T01:53:53;14.30;99.90
13344;DHT22;6741;48.964;9.406;2022-10-16T01:56:21;14.30;99.90
13344;DHT22;6741;48.964;9.406;2022-10-16T01:58:53;14.40;99.90
13344;DHT22;6741;48.964;9.406;2022-10-16T02:01:24;14.40;99.90
13344;DHT22;6741;48.964;9.406;2022-10-16T02:03:54;14.40;99.90
13344;DHT22;6741;48.964;9.406;2022-10-16T02:06:22;14.40;99.90
13344;DHT22;6741;48.964;9.406;2022-10-16T02:08:49;14.40;99.90
13344;DHT22;6741;48.964;9.406;2022-10-16T02:11:16;14.40;99.90
13344;DHT22;6741;48.964;9.406;2022-10-16T02:13:46;14.40;99.90
13344;DHT22;6741;48.964;9.406;2022-10-16T02:16:16;14.40;99.90
13344;DHT22;6741;48.964;9.406;2022-10-16T02:18:43;14.40;99.90
13344;DHT22;6741;48.964;9.406;2022-10-16T02:21:15;14.40;99.90
13344;DHT22;6741;48.964;9.406;2022-10-16T02:23:48;14.40;99.90
13344;DHT22;6741;48.964;9.406;2022-10-16T02:26:25;14.40;99.90
13344;DHT22;6741;48.964;9.406;2022-10-16T02:28:59;14.40;99.90
13344;DHT22;6741;48.964;9.406;2022-10-16T02:31:30;14.40;99.90
13344;DHT22;6741;48.964;9.406;2022-10-16T02:34:00;14.40;99.90
13344;DHT22;6741;48.964;9.406;2022-10-16T02:36:31;14.40;99.90
13344;DHT22;6741;48.964;9.406;2022-10-16T02:38:58;14.40;99.90
13344;DHT22;6741;48.964;9.406;2022-10-16T02:41:26;14.40;99.90
13344;DHT22;6741;48.964;9.406;2022-10-16T02:43:54;14.50;99.90
13344;DHT22;6741;48.964;9.406;2022-10-16T02:46:21;14.50;99.90
13344;DHT22;6741;48.964;9.406;2022-10-16T02:48:50;14.50;99.90
13344;DHT22;6741;48.964;9.406;2022-10-16T02:51:16;14.40;99.90
13344;DHT22;6741;48.964;9.406;2022-10-16T02:53:43;14.50;99.90
13344;DHT22;6741;48.964;9.406;2022-10-16T02:56:10;14.40;99.90
13344;DHT22;6741;48.964;9.406;2022-10-16T02:58:37;14.40;99.90
13344;DHT22;6741;48.964;9.406;2022-10-16T03:01:04;14.40;99.90
13344;DHT22;6741;48.964;9.406;2022-10-16T03:03:31;14.40;99.90
13344;DHT22;6741;48.964;9.406;2022-10-16T03:06:00;14.40;99.90
13344;DHT22;6741;48.964;9.406;2022-10-16T03:08:27;14.40;99.90
13344;DHT22;6741;48.964;9.406;2022-10-16T03:10:55;14.40;99.90
13344;DHT22;6741;48.964;9.406;2022-10-16T03:13:22;14.40;99.90
13344;DHT22;6741;48.964;9.406;2022-10-16T03:15:49;14.40;99.90
13344;DHT22;6741;48.964;9.406;2022-10-16T03:18:16;14.40;99.90
13344;DHT22;6741;48.964;9.406;2022-10-16T03:20:43;14.30;99.90
13344;DHT22;6741;48.964;9.406;2022-10-16T03:23:11;14.30;99.90
13344;DHT22;6741;48.964;9.406;2022-10-16T03:25:39;14.30;99.90
13344;DHT22;6741;48.964;9.406;2022-10-16T03:28:06;14.30;99.90
13344;DHT22;6741;48.964;9.406;2022-10-16T03:30:33;14.30;99.90
13344;DHT22;6741;48.964;9.406;2022-10-16T03:32:59;14.30;99.90
13344;DHT22;6741;48.964;9.406;2022-10-16T03:35:26;14.30;99.90
13344;DHT22;6741;48.964;9.406;2022-10-16T03:37:53;14.30;99.90
13344;DHT22;6741;48.964;9.406;2022-10-16T03:40:22;14.30;99.90
13344;DHT22;6741;48.964;9.406;2022-10-16T03:42:49;14.30;99.90
13344;DHT22;6741;48.964;9.406;2022-10-16T03:45:16;14.20;99.90
13344;DHT22;6741;48.964;9.406;2022-10-16T03:47:43;14.20;99.90
13344;DHT22;6741;48.964;9.406;2022-10-16T03:50:09;14.20;99.90
13344;DHT22;6741;48.964;9.406;2022-10-16T03:52:36;14.10;99.90
13344;DHT22;6741;48.964;9.406;2022-10-16T03:55:04;14.10;99.90
13344;DHT22;6741;48.964;9.406;2022-10-16T03:57:32;14.00;99.90
13344;DHT22;6741;48.964;9.406;2022-10-16T03:59:59;14.10;99.90
13344;DHT22;6741;48.964;9.406;2022-10-16T04:02:26;14.00;99.90
13344;DHT22;6741;48.964;9.406;2022-10-16T04:04:53;14.00;99.90
13344;DHT22;6741;48.964;9.406;2022-10-16T04:07:20;14.00;99.90
13344;DHT22;6741;48.964;9.406;2022-10-16T04:09:47;14.00;99.90
13344;DHT22;6741;48.964;9.406;2022-10-16T04:12:14;14.00;99.90
13344;DHT22;6741;48.964;9.406;2022-10-16T04:14:42;13.90;99.90
13344;DHT22;6741;48.964;9.406;2022-10-16T04:17:09;13.90;99.90
13344;DHT22;6741;48.964;9.406;2022-10-16T04:19:36;13.90;99.90
13344;DHT22;6741;48.964;9.406;2022-10-16T04:22:03;13.90;99.90
13344;DHT22;6741;48.964;9.406;2022-10-16T04:24:30;13.90;99.90
13344;DHT22;6741;48.964;9.406;2022-10-16T04:26:57;13.90;99.90
13344;DHT22;6741;48.964;9.406;2022-10-16T04:29:24;13.90;99.90
13344;DHT22;6741;48.964;9.406;2022-10-16T04:31:52;13.90;99.90
13344;DHT22;6741;48.964;9.406;2022-10-16T04:34:19;13.90;99.90
13344;DHT22;6741;48.964;9.406;2022-10-16T04:36:47;13.80;99.90
13344;DHT22;6741;48.964;9.406;2022-10-16T04:39:14;13.70;99.90
13344;DHT22;6741;48.964;9.406;2022-10-16T04:41:42;13.70;99.90
13344;DHT22;6741;48.964;9.406;2022-10-16T04:44:09;13.70;99.90
13344;DHT22;6741;48.964;9.406;2022-10-16T04:46:35;13.70;99.90
13344;DHT22;6741;48.964;9.406;2022-10-16T04:49:04;13.70;99.90
13344;DHT22;6741;48.964;9.406;2022-10-16T04:51:31;13.70;99.90
13344;DHT22;6741;48.964;9.406;2022-10-16T04:53:58;13.70;99.90
13344;DHT22;6741;48.964;9.406;2022-10-16T04:56:25;13.70;99.90
13344;DHT22;6741;48.964;9.406;2022-10-16T04:58:52;13.70;99.90
13344;DHT22;6741;48.964;9.406;2022-10-16T05:01:19;13.70;99.90
13344;DHT22;6741;48.964;9.406;2022-10-16T05:03:46;13.70;99.90
13344;DHT22;6741;48.964;9.406;2022-10-16T05:06:14;13.70;99.90
13344;DHT22;6741;48.964;9.406;2022-10-16T05:08:44;13.70;99.90
13344;DHT22;6741;48.964;9.406;2022-10-16T05:11:11;13.70;99.90
13344;DHT22;6741;48.964;9.406;2022-10-16T05:13:38;13.70;99.90
13344;DHT22;6741;48.964;9.406;2022-10-16T05:16:06;13.70;99.90
13344;DHT22;6741;48.964;9.406;2022-10-16T05:18:33;13.70;99.90
13344;DHT22;6741;48.964;9.406;2022-10-16T05:21:00;13.70;99.90
13344;DHT22;6741;48.964;9.406;2022-10-16T05:23:28;13.80;99.90
13344;DHT22;6741;48.964;9.406;2022-10-16T05:25:56;13.70;99.90
13344;DHT22;6741;48.964;9.406;2022-10-16T05:28:24;13.70;99.90
13344;DHT22;6741;48.964;9.406;2022-10-16T05:30:51;13.70;99.90
13344;DHT22;6741;48.964;9.406;2022-10-16T05:33:20;13.80;99.90
13344;DHT22;6741;48.964;9.406;2022-10-16T05:35:50;13.80;99.90
13344;DHT22;6741;48.964;9.406;2022-10-16T05:38:17;13.80;99.90
13344;DHT22;6741;48.964;9.406;2022-10-16T05:40:52;13.80;99.90
13344;DHT22;6741;48.964;9.406;2022-10-16T05:43:19;13.80;99.90
13344;DHT22;6741;48.964;9.406;2022-10-16T05:45:53;13.80;99.90
13344;DHT22;6741;48.964;9.406;2022-10-16T05:48:20;13.80;99.90
13344;DHT22;6741;48.964;9.406;2022-10-16T05:50:47;13.70;99.90
13344;DHT22;6741;48.964;9.406;2022-10-16T05:53:15;13.70;99.90
13344;DHT22;6741;48.964;9.406;2022-10-16T05:55:41;13.70;99.90
13344;DHT22;6741;48.964;9.406;2022-10-16T05:58:10;13.60;99.90
13344;DHT22;6741;48.964;9.406;2022-10-16T06:00:37;13.60;99.90
13344;DHT22;6741;48.964;9.406;2022-10-16T06:03:03;13.60;99.90
13344;DHT22;6741;48.964;9.406;2022-10-16T06:05:32;13.60;99.90
13344;DHT22;6741;48.964;9.406;2022-10-16T06:07:59;13.60;99.90
13344;DHT22;6741;48.964;9.406;2022-10-16T06:10:26;13.60;99.90
13344;DHT22;6741;48.964;9.406;2022-10-16T06:12:54;13.60;99.90
13344;DHT22;6741;48.964;9.406;2022-10-16T06:15:22;13.60;99.90
13344;DHT22;6741;48.964;9.406;2022-10-16T06:17:49;13.70;99.90
13344;DHT22;6741;48.964;9.406;2022-10-16T06:20:16;13.70;99.90
13344;DHT22;6741;48.964;9.406;2022-10-16T06:22:43;13.80;99.90
13344;DHT22;6741;48.964;9.406;2022-10-16T06:25:10;13.80;99.90
13344;DHT22;6741;48.964;9.406;2022-10-16T06:27:39;13.80;99.90
13344;DHT22;6741;48.964;9.406;2022-10-16T06:30:08;13.80;99.90
13344;DHT22;6741;48.964;9.406;2022-10-16T06:32:36;13.80;99.90
13344;DHT22;6741;48.964;9.406;2022-10-16T06:35:03;13.90;99.90
13344;DHT22;6741;48.964;9.406;2022-10-16T06:37:30;13.90;99.90
13344;DHT22;6741;48.964;9.406;2022-10-16T06:39:57;13.90;99.90
13344;DHT22;6741;48.964;9.406;2022-10-16T06:42:25;13.90;99.90
13344;DHT22;6741;48.964;9.406;2022-10-16T06:44:52;13.90;99.90
13344;DHT22;6741;48.964;9.406;2022-10-16T06:47:19;13.90;99.90
13344;DHT22;6741;48.964;9.406;2022-10-16T06:49:47;14.00;99.90
13344;DHT22;6741;48.964;9.406;2022-10-16T06:52:14;14.00;99.90
13344;DHT22;6741;48.964;9.406;2022-10-16T06:54:41;14.10;99.90
13344;DHT22;6741;48.964;9.406;2022-10-16T06:57:08;14.10;99.90
13344;DHT22;6741;48.964;9.406;2022-10-16T06:59:35;14.10;99.90
13344;DHT22;6741;48.964;9.406;2022-10-16T07:02:02;14.10;99.90
13344;DHT22;6741;48.964;9.406;2022-10-16T07:04:29;14.20;99.90
13344;DHT22;6741;48.964;9.406;2022-10-16T07:06:57;14.30;99.90
13344;DHT22;6741;48.964;9.406;2022-10-16T07:09:24;14.30;99.90
13344;DHT22;6741;48.964;9.406;2022-10-16T07:11:51;14.40;99.90
13344;DHT22;6741;48.964;9.406;2022-10-16T07:14:20;14.50;99.90
13344;DHT22;6741;48.964;9.406;2022-10-16T07:16:48;14.70;99.90
13344;DHT22;6741;48.964;9.406;2022-10-16T07:19:15;14.80;99.90
13344;DHT22;6741;48.964;9.406;2022-10-16T07:21:43;14.80;99.90
13344;DHT22;6741;48.964;9.406;2022-10-16T07:24:13;14.80;99.90
13344;DHT22;6741;48.964;9.406;2022-10-16T07:26:41;14.80;99.90
13344;DHT22;6741;48.964;9.406;2022-10-16T07:29:13;14.80;99.90
13344;DHT22;6741;48.964;9.406;2022-10-16T07:31:41;15.00;99.90
13344;DHT22;6741;48.964;9.406;2022-10-16T07:34:08;15.00;99.90
13344;DHT22;6741;48.964;9.406;2022-10-16T07:36:36;15.00;99.90
13344;DHT22;6741;48.964;9.406;2022-10-16T07:39:03;14.90;99.90
13344;DHT22;6741;48.964;9.406;2022-10-16T07:41:31;14.90;99.90
13344;DHT22;6741;48.964;9.406;2022-10-16T07:44:02;14.90;99.90
13344;DHT22;6741;48.964;9.406;2022-10-16T07:46:29;14.90;99.90
13344;DHT22;6741;48.964;9.406;2022-10-16T07:48:57;14.90;99.90
13344;DHT22;6741;48.964;9.406;2022-10-16T07:51:25;14.90;99.90
13344;DHT22;6741;48.964;9.406;2022-10-16T07:53:53;14.80;99.90
13344;DHT22;6741;48.964;9.406;2022-10-16T07:56:21;14.70;99.90
13344;DHT22;6741;48.964;9.406;2022-10-16T07:58:50;14.70;99.90
13344;DHT22;6741;48.964;9.406;2022-10-16T08:01:18;14.70;99.90
13344;DHT22;6741;48.964;9.406;2022-10-16T08:03:46;14.70;99.90
13344;DHT22;6741;48.964;9.406;2022-10-16T08:06:13;14.70;99.90
13344;DHT22;6741;48.964;9.406;2022-10-16T08:08:40;14.80;99.90
13344;DHT22;6741;48.964;9.406;2022-10-16T08:11:07;14.80;99.90
13344;DHT22;6741;48.964;9.406;2022-10-16T08:13:34;14.90;99.90
13344;DHT22;6741;48.964;9.406;2022-10-16T08:16:03;15.00;99.90
13344;DHT22;6741;48.964;9.406;2022-10-16T08:18:33;15.20;99.90
13344;DHT22;6741;48.964;9.406;2022-10-16T08:21:00;15.30;99.90
13344;DHT22;6741;48.964;9.406;2022-10-16T08:23:28;15.50;99.90
13344;DHT22;6741;48.964;9.406;2022-10-16T08:25:56;15.70;99.90
13344;DHT22;6741;48.964;9.406;2022-10-16T08:28:28;16.00;99.90
13344;DHT22;6741;48.964;9.406;2022-10-16T08:30:54;16.20;99.90
13344;DHT22;6741;48.964;9.406;2022-10-16T08:33:23;16.30;99.90
13344;DHT22;6741;48.964;9.406;2022-10-16T08:35:51;16.40;99.90
13344;DHT22;6741;48.964;9.406;2022-10-16T08:38:19;16.50;99.90
13344;DHT22;6741;48.964;9.406;2022-10-16T08:40:46;16.70;99.90
13344;DHT22;6741;48.964;9.406;2022-10-16T08:43:43;17.00;99.90
13344;DHT22;6741;48.964;9.406;2022-10-16T08:46:21;17.20;99.90
13344;DHT22;6741;48.964;9.406;2022-10-16T08:48:54;17.40;99.90
13344;DHT22;6741;48.964;9.406;2022-10-16T08:51:24;17.50;99.90
13344;DHT22;6741;48.964;9.406;2022-10-16T08:53:54;17.60;99.90
13344;DHT22;6741;48.964;9.406;2022-10-16T08:56:22;17.70;99.90
13344;DHT22;6741;48.964;9.406;2022-10-16T08:58:50;17.90;99.90
13344;DHT22;6741;48.964;9.406;2022-10-16T09:01:21;17.90;99.90
13344;DHT22;6741;48.964;9.406;2022-10-16T09:06:47;17.80;99.90
13344;DHT22;6741;48.964;9.406;2022-10-16T09:09:39;17.80;99.90
13344;DHT22;6741;48.964;9.406;2022-10-16T09:12:14;17.80;99.90
13344;DHT22;6741;48.964;9.406;2022-10-16T09:14:57;17.70;99.90
13344;DHT22;6741;48.964;9.406;2022-10-16T09:17:32;17.90;99.90
13344;DHT22;6741;48.964;9.406;2022-10-16T09:20:20;18.00;99.90
13344;DHT22;6741;48.964;9.406;2022-10-16T09:22:47;18.10;99.90
13344;DHT22;6741;48.964;9.406;2022-10-16T09:25:16;18.00;99.90
13344;DHT22;6741;48.964;9.406;2022-10-16T09:27:48;18.00;99.90
13344;DHT22;6741;48.964;9.406;2022-10-16T09:30:18;18.00;99.90
13344;DHT22;6741;48.964;9.406;2022-10-16T09:32:48;18.10;99.90
13344;DHT22;6741;48.964;9.406;2022-10-16T09:35:20;18.20;99.90
13344;DHT22;6741;48.964;9.406;2022-10-16T09:37:50;18.40;99.90
13344;DHT22;6741;48.964;9.406;2022-10-16T09:40:26;18.60;99.90
13344;DHT22;6741;48.964;9.406;2022-10-16T09:43:02;18.80;99.90
13344;DHT22;6741;48.964;9.406;2022-10-16T09:45:30;19.10;99.90
13344;DHT22;6741;48.964;9.406;2022-10-16T09:47:57;19.50;99.90
13344;DHT22;6741;48.964;9.406;2022-10-16T09:50:27;19.80;99.90
13344;DHT22;6741;48.964;9.406;2022-10-16T09:53:04;20.10;99.90
13344;DHT22;6741;48.964;9.406;2022-10-16T09:55:31;20.40;99.90
13344;DHT22;6741;48.964;9.406;2022-10-16T09:57:58;20.90;99.90
13344;DHT22;6741;48.964;9.406;2022-10-16T10:00:26;21.50;99.90
13344;DHT22;6741;48.964;9.406;2022-10-16T10:02:54;22.20;99.90
13344;DHT22;6741;48.964;9.406;2022-10-16T10:05:23;22.50;93.70
13344;DHT22;6741;48.964;9.406;2022-10-16T10:07:57;22.70;96.30
13344;DHT22;6741;48.964;9.406;2022-10-16T10:10:27;22.90;84.90
13344;DHT22;6741;48.964;9.406;2022-10-16T10:12:54;23.30;56.30
13344;DHT22;6741;48.964;9.406;2022-10-16T10:15:23;23.70;1.00
13344;DHT22;6741;48.964;9.406;2022-10-16T10:17:53;23.60;1.00
13344;DHT22;6741;48.964;9.406;2022-10-16T10:20:26;23.40;14.30
13344;DHT22;6741;48.964;9.406;2022-10-16T10:22:56;23.00;35.20
13344;DHT22;6741;48.964;9.406;2022-10-16T10:25:38;23.00;30.90
13344;DHT22;6741;48.964;9.406;2022-10-16T10:30:59;23.50;15.90
13344;DHT22;6741;48.964;9.406;2022-10-16T10:33:34;23.60;4.60
13344;DHT22;6741;48.964;9.406;2022-10-16T10:36:12;24.30;1.00
13344;DHT22;6741;48.964;9.406;2022-10-16T10:38:49;24.80;1.00
13344;DHT22;6741;48.964;9.406;2022-10-16T10:41:33;25.10;99.90
13344;DHT22;6741;48.964;9.406;2022-10-16T10:44:14;25.80;99.90
13344;DHT22;6741;48.964;9.406;2022-10-16T10:46:50;26.20;1.00
13344;DHT22;6741;48.964;9.406;2022-10-16T10:49:35;25.60;1.00
13344;DHT22;6741;48.964;9.406;2022-10-16T10:52:20;24.50;99.90
13344;DHT22;6741;48.964;9.406;2022-10-16T10:55:01;23.60;1.00
13344;DHT22;6741;48.964;9.406;2022-10-16T10:57:32;23.50;1.00
13344;DHT22;6741;48.964;9.406;2022-10-16T11:00:10;23.30;1.00
13344;DHT22;6741;48.964;9.406;2022-10-16T11:02:45;23.00;1.00
13344;DHT22;6741;48.964;9.406;2022-10-16T11:05:38;23.20;1.00
13344;DHT22;6741;48.964;9.406;2022-10-16T11:08:11;23.30;1.00
13344;DHT22;6741;48.964;9.406;2022-10-16T11:10:47;23.40;1.00
13344;DHT22;6741;48.964;9.406;2022-10-16T11:13:26;23.60;1.00
13344;DHT22;6741;48.964;9.406;2022-10-16T11:15:58;23.60;1.00
13344;DHT22;6741;48.964;9.406;2022-10-16T11:18:30;23.70;1.00
13344;DHT22;6741;48.964;9.406;2022-10-16T11:21:05;24.60;99.90
13344;DHT22;6741;48.964;9.406;2022-10-16T11:23:39;25.00;1.00
13344;DHT22;6741;48.964;9.406;2022-10-16T11:26:11;26.50;1.00
13344;DHT22;6741;48.964;9.406;2022-10-16T11:28:44;28.30;99.90
13344;DHT22;6741;48.964;9.406;2022-10-16T11:31:16;29.00;1.00
13344;DHT22;6741;48.964;9.406;2022-10-16T11:33:47;29.60;1.00
13344;DHT22;6741;48.964;9.406;2022-10-16T11:36:19;30.30;99.90
13344;DHT22;6741;48.964;9.406;2022-10-16T11:38:52;31.30;1.00
13344;DHT22;6741;48.964;9.406;2022-10-16T11:41:27;31.60;66.50
13344;DHT22;6741;48.964;9.406;2022-10-16T11:44:09;32.50;52.00
13344;DHT22;6741;48.964;9.406;2022-10-16T11:46:46;31.90;74.80
13344;DHT22;6741;48.964;9.406;2022-10-16T11:49:16;32.40;90.00
13344;DHT22;6741;48.964;9.406;2022-10-16T11:51:51;31.90;90.70
13344;DHT22;6741;48.964;9.406;2022-10-16T11:54:28;31.80;92.10
13344;DHT22;6741;48.964;9.406;2022-10-16T11:57:02;32.80;94.80
13344;DHT22;6741;48.964;9.406;2022-10-16T11:59:36;33.10;99.90
13344;DHT22;6741;48.964;9.406;2022-10-16T12:02:35;33.70;99.90
13344;DHT22;6741;48.964;9.406;2022-10-16T12:05:28;33.80;99.90
13344;DHT22;6741;48.964;9.406;2022-10-16T12:08:05;33.50;99.90
13344;DHT22;6741;48.964;9.406;2022-10-16T12:10:34;33.50;99.90
13344;DHT22;6741;48.964;9.406;2022-10-16T12:13:04;31.90;99.90
13344;DHT22;6741;48.964;9.406;2022-10-16T12:15:32;31.10;99.90
13344;DHT22;6741;48.964;9.406;2022-10-16T12:18:00;30.70;99.90
13344;DHT22;6741;48.964;9.406;2022-10-16T12:20:29;31.30;99.90
13344;DHT22;6741;48.964;9.406;2022-10-16T12:23:00;31.50;99.90
13344;DHT22;6741;48.964;9.406;2022-10-16T12:25:30;32.40;99.90
13344;DHT22;6741;48.964;9.406;2022-10-16T12:28:04;34.20;99.90
13344;DHT22;6741;48.964;9.406;2022-10-16T12:30:34;33.60;99.90
13344;DHT22;6741;48.964;9.406;2022-10-16T12:33:04;34.20;99.90
13344;DHT22;6741;48.964;9.406;2022-10-16T12:35:34;34.30;99.90
13344;DHT22;6741;48.964;9.406;2022-10-16T12:38:15;35.60;99.90
13344;DHT22;6741;48.964;9.406;2022-10-16T12:40:45;35.80;99.90
13344;DHT22;6741;48.964;9.406;2022-10-16T12:43:26;35.20;99.90
13344;DHT22;6741;48.964;9.406;2022-10-16T12:46:01;35.50;99.80
13344;DHT22;6741;48.964;9.406;2022-10-16T12:48:29;35.20;99.90
13344;DHT22;6741;48.964;9.406;2022-10-16T12:50:56;35.90;99.90
13344;DHT22;6741;48.964;9.406;2022-10-16T12:53:25;34.90;99.90
13344;DHT22;6741;48.964;9.406;2022-10-16T12:56:04;32.80;99.90
13344;DHT22;6741;48.964;9.406;2022-10-16T12:59:00;32.70;99.90
13344;DHT22;6741;48.964;9.406;2022-10-16T13:01:43;32.80;99.90
13344;DHT22;6741;48.964;9.406;2022-10-16T13:04:43;32.10;99.90
13344;DHT22;6741;48.964;9.406;2022-10-16T13:07:32;31.20;99.90
13344;DHT22;6741;48.964;9.406;2022-10-16T13:10:09;32.50;99.90
13344;DHT22;6741;48.964;9.406;2022-10-16T13:13:02;34.60;99.90
13344;DHT22;6741;48.964;9.406;2022-10-16T13:18:25;33.20;99.40
13344;DHT22;6741;48.964;9.406;2022-10-16T13:21:04;31.70;99.90
13344;DHT22;6741;48.964;9.406;2022-10-16T13:23:38;29.60;99.90
13344;DHT22;6741;48.964;9.406;2022-10-16T13:26:17;28.60;99.90
13344;DHT22;6741;48.964;9.406;2022-10-16T13:28:47;27.50;99.90
13344;DHT22;6741;48.964;9.406;2022-10-16T13:31:20;27.00;99.90
13344;DHT22;6741;48.964;9.406;2022-10-16T13:33:50;26.60;99.90
13344;DHT22;6741;48.964;9.406;2022-10-16T13:36:22;26.30;99.90
13344;DHT22;6741;48.964;9.406;2022-10-16T13:39:00;25.80;99.90
13344;DHT22;6741;48.964;9.406;2022-10-16T13:41:27;25.40;99.90
13344;DHT22;6741;48.964;9.406;2022-10-16T13:43:54;25.10;99.90
13344;DHT22;6741;48.964;9.406;2022-10-16T13:46:25;24.70;99.90
13344;DHT22;6741;48.964;9.406;2022-10-16T13:48:59;24.60;99.90
13344;DHT22;6741;48.964;9.406;2022-10-16T13:51:27;24.60;99.90
13344;DHT22;6741;48.964;9.406;2022-10-16T13:53:55;24.80;99.90
13344;DHT22;6741;48.964;9.406;2022-10-16T13:56:25;25.40;99.90
13344;DHT22;6741;48.964;9.406;2022-10-16T13:58:59;27.60;99.90
13344;DHT22;6741;48.964;9.406;2022-10-16T14:01:29;30.10;99.90
13344;DHT22;6741;48.964;9.406;2022-10-16T14:04:02;32.00;99.90
13344;DHT22;6741;48.964;9.406;2022-10-16T14:06:31;30.80;99.90
13344;DHT22;6741;48.964;9.406;2022-10-16T14:09:01;29.40;99.90
13344;DHT22;6741;48.964;9.406;2022-10-16T14:11:29;28.80;99.90
13344;DHT22;6741;48.964;9.406;2022-10-16T14:13:56;29.50;99.90
13344;DHT22;6741;48.964;9.406;2022-10-16T14:16:26;30.00;99.90
13344;DHT22;6741;48.964;9.406;2022-10-16T14:19:00;30.90;99.90
13344;DHT22;6741;48.964;9.406;2022-10-16T14:21:28;30.90;99.90
13344;DHT22;6741;48.964;9.406;2022-10-16T14:23:56;30.80;99.90
13344;DHT22;6741;48.964;9.406;2022-10-16T14:26:26;30.60;99.90
13344;DHT22;6741;48.964;9.406;2022-10-16T14:29:10;30.20;99.90
13344;DHT22;6741;48.964;9.406;2022-10-16T14:31:37;29.80;99.90
13344;DHT22;6741;48.964;9.406;2022-10-16T14:34:25;28.70;99.90
13344;DHT22;6741;48.964;9.406;2022-10-16T14:36:53;27.50;99.90
13344;DHT22;6741;48.964;9.406;2022-10-16T14:39:22;26.70;99.90
13344;DHT22;6741;48.964;9.406;2022-10-16T14:41:50;25.90;99.90
13344;DHT22;6741;48.964;9.406;2022-10-16T14:44:18;25.40;99.90
13344;DHT22;6741;48.964;9.406;2022-10-16T14:46:48;24.90;99.90
13344;DHT22;6741;48.964;9.406;2022-10-16T14:49:17;24.60;99.90
13344;DHT22;6741;48.964;9.406;2022-10-16T14:51:47;24.40;99.90
13344;DHT22;6741;48.964;9.406;2022-10-16T14:54:16;24.20;99.90
13344;DHT22;6741;48.964;9.406;2022-10-16T14:56:47;24.10;99.90
13344;DHT22;6741;48.964;9.406;2022-10-16T14:59:17;24.00;99.90
13344;DHT22;6741;48.964;9.406;2022-10-16T15:01:46;23.90;99.90
13344;DHT22;6741;48.964;9.406;2022-10-16T15:04:13;23.70;99.90
13344;DHT22;6741;48.964;9.406;2022-10-16T15:06:41;23.60;99.90
13344;DHT22;6741;48.964;9.406;2022-10-16T15:09:10;23.60;99.90
13344;DHT22;6741;48.964;9.406;2022-10-16T15:11:36;23.60;99.90
13344;DHT22;6741;48.964;9.406;2022-10-16T15:14:03;23.60;99.90
13344;DHT22;6741;48.964;9.406;2022-10-16T15:16:31;23.50;99.90
13344;DHT22;6741;48.964;9.406;2022-10-16T15:18:58;23.50;99.90
13344;DHT22;6741;48.964;9.406;2022-10-16T15:21:27;23.30;99.90
13344;DHT22;6741;48.964;9.406;2022-10-16T15:23:54;23.10;99.90
13344;DHT22;6741;48.964;9.406;2022-10-16T15:26:24;23.00;99.90
13344;DHT22;6741;48.964;9.406;2022-10-16T15:28:51;22.80;99.90
13344;DHT22;6741;48.964;9.406;2022-10-16T15:31:18;22.70;99.90
13344;DHT22;6741;48.964;9.406;2022-10-16T15:33:49;22.60;99.90
13344;DHT22;6741;48.964;9.406;2022-10-16T15:36:25;22.50;99.90
13344;DHT22;6741;48.964;9.406;2022-10-16T15:38:52;22.30;99.90
13344;DHT22;6741;48.964;9.406;2022-10-16T15:41:20;22.20;99.90
13344;DHT22;6741;48.964;9.406;2022-10-16T15:43:49;22.00;99.90
13344;DHT22;6741;48.964;9.406;2022-10-16T15:46:18;21.90;99.90
13344;DHT22;6741;48.964;9.406;2022-10-16T15:48:46;21.70;99.90
13344;DHT22;6741;48.964;9.406;2022-10-16T15:51:13;21.60;99.90
13344;DHT22;6741;48.964;9.406;2022-10-16T15:53:40;21.40;99.90
13344;DHT22;6741;48.964;9.406;2022-10-16T15:56:09;21.20;99.90
13344;DHT22;6741;48.964;9.406;2022-10-16T15:58:36;21.00;99.90
13344;DHT22;6741;48.964;9.406;2022-10-16T16:01:05;20.90;99.90
13344;DHT22;6741;48.964;9.406;2022-10-16T16:03:34;20.80;99.90
13344;DHT22;6741;48.964;9.406;2022-10-16T16:06:06;20.70;99.90
13344;DHT22;6741;48.964;9.406;2022-10-16T16:08:33;20.60;99.90
13344;DHT22;6741;48.964;9.406;2022-10-16T16:11:03;20.60;99.90
13344;DHT22;6741;48.964;9.406;2022-10-16T16:13:30;20.40;99.90
13344;DHT22;6741;48.964;9.406;2022-10-16T16:15:57;20.30;99.90